DIVISION OF AGRICULTURAL PHYSICS
INDIAN AGRICULTURAL RESEARCH INSTITUTE
NEW DELHI, INDIA-110012
Phone No. 011-25843014

(IARI: Latitude: 280 38'23"N, Longitude:770 09'27"E., Altitude: 228.61m above msl.)
Duration of data : Last 60 days
Date Max.
Temp.
(oC)
Min.
Temp.
(oC)
Rainfall
(mm)
Wind
Speed
(Kmph)
Wind
Direction-I
Wind
Direction-II
Weather
condition-I
(Code 0-9)
Weather
condition-II
(Code 0-9)
RH-I
(%)
RH-II
(%)
BSS
(hrs)
Evaporation
(mm)
2018-08-21 35.5 24.5 0.00 3.6 C E 1 0 87.0 66.0 1.0 4.0
2018-08-22 35.0 26.2 0.00 3.0 SW SE 1 1 85.0 67.0 8.5 3.8
2018-08-23 34.0 24.0 47.60 3.2 W NW 6 1 92.0 80.0 1.7 4.2
2018-08-24 30.5 25.5 0.00 5.0 W NW 1 1 85.0 70.0 0.8 3.6
2018-08-25 33.8 24.4 0.00 10.1 W W 1 1 82.0 76.0 0.0 4.0
2018-08-26 32.2 25.0 0.00 8.5 W NW 1 1 78.0 69.0 1.2 3.4
2018-08-27 34.0 24.7 2.80 14.0 C N 6 2 90.0 77.0 2.9 4.8
2018-08-28 31.6 21.4 89.20 4.1 NNE W 1 1 97.0 92.0 0.0 2.9
2018-08-29 31.2 24.7 28.60 4.0 N C 2 0 92.0 84.0 0.2 3.7
2018-08-30 31.7 24.6 3.20 2.6 E W 0 0 90.0 74.0 0.0 3.2
2018-08-31 33.7 25.8 0.00 3.0 W N 1 1 82.0 68.0 7.3 4.3
2018-09-01 33.0 22.4 24.40 4.0 NNE N 6 2 95.0 84.0 1.8 4.3
2018-09-02 27.2 23.2 31.60 3.1 W W 2 2 93.0 90.0 0.0 3.3
2018-09-03 27.4 23.6 48.60 2.6 C E 2 1 90.0 92.0 0.0 3.2
2018-09-04 28.4 23.2 10.00 0.9 C C 1 2 94.0 89.0 0.0 2.4
2018-09-05 28.6 22.4 5.50 2.3 N N 6 1 93.0 77.0 0.0 2.6
2018-09-06 30.0 24.0 7.20 3.4 W W 1 1 84.0 67.0 0.1 2.9
2018-09-07 33.5 21.5 22.80 3.9 C NW 1 1 93.0 83.0 6.5 3.6
2018-09-08 33.6 23.5 1.60 2.2 C NE 1 0 95.0 75.0 3.6 2.8
2018-09-09 31.8 23.0 17.00 7.0 E SE 1 1 87.0 73.0 2.9 2.8
2018-09-10 31.0 22.5 0.00 7.7 C S 0 1 92.0 71.0 8.7 5.0
2018-09-11 31.0 24.0 0.00 3.5 W W 0 0 87.0 71.0 4.6 5.5
2018-09-12 33.0 24.5 0.00 6.3 W W 1 1 83.0 73.0 7.8 5.8
2018-09-13 32.5 24.0 0.00 9.6 W NW 1 1 84.0 64.0 7.5 5.0
2018-09-14 33.0 23.0 0.00 7.8 W N 0 1 81.0 62.0 8.2 4.5
2018-09-15 33.5 23.2 0.00 5.0 W W 0 1 77.0 58.0 8.6 3.7
2018-09-16 33.4 23.4 0.00 4.6 W W 0 1 84.0 59.0 9.9 3.3
2018-09-17 33.2 22.5 0.00 4.6 W N 1 1 86.0 60.0 8.5 4.0
2018-09-18 33.0 23.0 0.00 5.3 W W 0 0 78.0 55.0 7.4 3.9
2018-09-19 34.4 20.8 0.00 3.7 C N 0 0 87.0 51.0 8.7 4.4
2018-09-20 34.5 21.2 0.00 3.6 W N 0 0 92.0 56.0 9.0 5.5
2018-09-21 34.5 22.5 0.00 6.2 E SE 1 1 83.0 68.0 8.3 4.0
2018-09-22 33.0 21.0 34.00 7.1 E S 1 1 90.0 87.0 6.5 4.2
2018-09-23 26.0 23.0 8.20 5.3 SE SE 1 1 90.0 78.0 0.0 3.8
2018-09-24 30.0 22.0 22.60 9.9 SE C 1 1 91.0 87.0 0.9 3.0
2018-09-25 27.4 20.2 4.40 6.6 W NW 6 0 96.0 84.0 0.0 2.8
2018-09-26 27.2 19.8 0.00 3.0 W N 0 0 95.0 66.0 1.1 2.9
2018-09-27 31.5 19.7 0.00 2.6 C NW 0 0 93.0 62.0 9.6 3.0
2018-09-28 32.8 21.5 0.00 1.8 C NW 0 0 95.0 46.0 8.6 3.4
2018-09-29 34.2 19.8 0.00 2.1 C W 0 0 90.0 51.0 9.2 4.0
2018-09-30 34.0 20.8 0.00 2.7 C NW 0 0 87.0 50.0 8.3 4.4
2018-10-01 33.2 19.2 0.00 3.7 C C 0 0 91.0 53.0 9.4 5.2
2018-10-02 34.2 19.0 0.00 2.1 C NW 0 0 95.0 50.0 9.0 5.0
2018-10-03 35.0 18.2 0.00 2.3 C C 0 0 91.0 45.0 8.8 5.0
2018-10-04 35.6 20.0 0.00 2.0 C W 0 0 93.0 55.0 8.8 5.2
2018-10-05 34.0 19.2 0.00 1.7 C N 1 0 96.0 63.0 7.0 4.6
2018-10-06 34.2 17.2 0.00 1.8 C NW 0 0 94.0 43.0 7.3 5.0
2018-10-07 33.5 17.0 0.00 2.0 C NW 0 0 94.0 46.0 8.4 5.8
2018-10-08 33.0 16.8 0.00 1.8 C W 0 0 98.0 43.0 8.7 4.6
2018-10-09 34.2 20.4 0.00 1.8 S S 1 0 80.0 50.0 8.0 4.4
2018-10-10 33.5 20.6 0.00 2.8 SE SE 0 0 78.0 64.0 8.1 5.0
2018-10-11 32.4 20.6 0.00 3.5 NE E 1 1 78.0 66.0 6.7 4.0
2018-10-12 31.2 14.6 0.00 3.9 C E 1 0 87.0 50.0 3.1 3.4
2018-10-13 30.7 13.0 0.00 1.7 C NW 1 0 83.0 47.0 7.4 3.5
2018-10-14 31.4 13.6 0.00 2.3 C W 0 0 96.0 50.0 7.1 3.6
2018-10-15 31.6 13.4 0.00 3.1 C NW 0 0 84.0 42.0 8.0 3.6
2018-10-16 32.4 15.5 0.00 1.8 C C 1 1 77.0 48.0 7.2 3.4
2018-10-17 33.8 15.6 0.00 1.5 C W 1 0 80.0 32.0 3.1 4.0
2018-10-18 34.2 15.2 0.00 1.7 C 1 0 82.0 0.0 8.1 3.4

Abbrevations used:
I - Observations taken at 7.21 hrs. and II - Observations taken at 14:21 hrs.
Codes:
0 - Fair (clear and slightly clouded), 1 - Variable Sky, 2 - Mainly Overcast, 3 - Sand Storm or Dust Storm,4 - Fog or Thick Dust Haze, 5 - Drizzle, 6 - Rain,7 - Snow or Sleet, 8 - Shower (s), 9 - Thunder Storm with or without Precipitation